Time;durP1;ratioP1;P1;durP2;ratioP2;P2;SDS_P1;SDS_P2;PMS_P1;PMS_P2;Temp;Humidity;BMP_temperature;BMP_pressure;BME280_temperature;BME280_humidity;BME280_pressure;Samples;Min_cycle;Max_cycle;Signal;HPM_P1;HPM_P2
2022/06/28 00:01:58;;;;;;;8.15;1.00;;;24.40;63.10;;;;;;5072803;28;20396;-90
2022/06/28 00:04:24;;;;;;;5.85;1.35;;;24.40;63.10;;;;;;5073227;28;20058;-89
2022/06/28 00:06:49;;;;;;;4.60;1.10;;;24.40;62.90;;;;;;5092473;28;20020;-93
2022/06/28 00:09:15;;;;;;;3.85;1.38;;;24.40;62.80;;;;;;5063914;28;20031;-95
2022/06/28 00:11:42;;;;;;;3.13;1.13;;;24.50;62.70;;;;;;5058870;28;20355;-95
2022/06/28 00:16:55;;;;;;;4.38;0.93;;;24.50;62.50;;;;;;5095342;28;20043;-95
2022/06/28 00:19:21;;;;;;;1.88;1.05;;;24.50;62.30;;;;;;5079643;28;20047;-95
2022/06/28 00:21:48;;;;;;;1.98;1.00;;;24.50;62.00;;;;;;5075361;28;20035;-96
2022/06/28 00:24:14;;;;;;;6.25;0.95;;;24.60;62.30;;;;;;5079011;28;20019;-94
2022/06/28 00:26:41;;;;;;;2.58;1.10;;;24.50;62.30;;;;;;5080622;28;20039;-95
2022/06/28 00:29:07;;;;;;;7.50;1.02;;;24.60;62.00;;;;;;5078874;28;20048;-95
2022/06/28 00:31:33;;;;;;;3.10;1.17;;;24.60;61.50;;;;;;5078520;28;20074;-94
2022/06/28 00:33:59;;;;;;;8.10;1.00;;;24.70;61.40;;;;;;5078831;28;20032;-95
2022/06/28 00:36:24;;;;;;;3.05;1.00;;;24.70;61.30;;;;;;5081276;28;20048;-93
2022/06/28 00:38:50;;;;;;;5.70;1.40;;;24.70;61.10;;;;;;5079747;28;20126;-95
2022/06/28 00:41:16;;;;;;;3.85;1.10;;;24.80;61.40;;;;;;5080361;28;20028;-96
2022/06/28 00:43:42;;;;;;;9.43;1.13;;;24.70;61.30;;;;;;5080335;28;20028;-95
2022/06/28 00:46:08;;;;;;;5.68;1.55;;;24.70;61.40;;;;;;5080001;28;20024;-95
2022/06/28 00:48:35;;;;;;;2.30;0.98;;;24.60;61.60;;;;;;5079087;28;20032;-95
2022/06/28 00:51:02;;;;;;;4.82;0.90;;;24.60;62.20;;;;;;5080611;28;20024;-95
2022/06/28 00:53:27;;;;;;;6.28;1.58;;;24.60;62.00;;;;;;5081502;28;20032;-90
2022/06/28 00:55:53;;;;;;;9.40;1.13;;;24.60;61.80;;;;;;5094041;28;20101;-90
2022/06/28 00:58:19;;;;;;;3.35;0.95;;;24.60;61.30;;;;;;5076851;28;20051;-90
2022/06/28 01:00:47;;;;;;;3.97;0.90;;;24.60;61.30;;;;;;5093194;28;20038;-91
2022/06/28 01:03:19;;;;;;;3.20;0.90;;;24.60;61.60;;;;;;5076807;28;20062;-90
2022/06/28 01:05:46;;;;;;;3.45;1.08;;;24.70;61.30;;;;;;5076665;28;20023;-92
2022/06/28 01:08:12;;;;;;;3.05;0.93;;;24.70;61.20;;;;;;5080760;28;20066;-92
2022/06/28 01:10:39;;;;;;;2.40;0.90;;;24.60;61.50;;;;;;5093628;28;20020;-95
2022/06/28 01:13:06;;;;;;;5.15;1.35;;;24.60;61.30;;;;;;5076598;28;20024;-93
2022/06/28 01:15:32;;;;;;;3.75;1.20;;;24.50;61.50;;;;;;5094304;28;20111;-94
2022/06/28 01:18:02;;;;;;;6.65;1.20;;;24.50;61.80;;;;;;5076444;28;20054;-94
2022/06/28 01:20:28;;;;;;;3.40;1.02;;;24.40;62.00;;;;;;5077569;28;20019;-95
2022/06/28 01:22:54;;;;;;;12.65;1.13;;;24.40;62.50;;;;;;5094635;28;20040;-94
2022/06/28 01:25:22;;;;;;;6.43;1.20;;;24.20;63.10;;;;;;5093527;28;20035;-95
2022/06/28 01:27:47;;;;;;;4.93;1.13;;;24.10;63.30;;;;;;5073984;28;20153;-94
2022/06/28 01:30:14;;;;;;;3.67;1.27;;;24.00;63.90;;;;;;5073324;28;20028;-87
2022/06/28 01:32:40;;;;;;;3.33;1.15;;;23.90;64.60;;;;;;5074383;28;20042;-86
2022/06/28 01:35:07;;;;;;;2.55;1.20;;;23.80;65.40;;;;;;5073014;28;20040;-86
2022/06/28 01:37:33;;;;;;;5.20;1.30;;;23.70;65.90;;;;;;5062835;28;20035;-86
2022/06/28 01:40:02;;;;;;;3.63;1.10;;;23.60;66.10;;;;;;5092936;28;20106;-85
2022/06/28 01:42:29;;;;;;;5.55;1.10;;;23.50;66.80;;;;;;5074589;28;20036;-85
2022/06/28 01:44:56;;;;;;;10.18;1.17;;;23.40;67.50;;;;;;5081932;27;20487;-84
2022/06/28 01:47:24;;;;;;;6.65;0.98;;;23.30;68.10;;;;;;5085596;27;20028;-85
2022/06/28 01:49:50;;;;;;;3.78;1.10;;;23.10;69.30;;;;;;5071272;28;20071;-83
2022/06/28 01:52:16;;;;;;;3.65;1.30;;;23.00;70.40;;;;;;5075714;28;20055;-84
2022/06/28 01:54:43;;;;;;;2.85;1.05;;;22.90;71.30;;;;;;5078445;28;20079;-86
2022/06/28 01:57:08;;;;;;;2.75;1.20;;;22.80;72.40;;;;;;5091045;27;20097;-87
2022/06/28 01:59:36;;;;;;;2.60;1.35;;;22.70;74.40;;;;;;5068097;28;20047;-87
2022/06/28 02:02:01;;;;;;;2.70;0.82;;;22.60;74.60;;;;;;5048917;28;20059;-86
2022/06/28 02:04:29;;;;;;;5.15;1.17;;;22.50;75.70;;;;;;5041760;28;20492;-87
2022/06/28 02:06:55;;;;;;;3.75;1.10;;;22.40;74.70;;;;;;5078350;28;20025;-86
2022/06/28 02:09:22;;;;;;;5.50;1.10;;;22.40;73.50;;;;;;5058564;28;20068;-86
2022/06/28 02:11:48;;;;;;;2.80;1.00;;;22.40;72.60;;;;;;5058031;28;20243;-87
2022/06/28 02:14:14;;;;;;;1.70;1.00;;;22.50;72.20;;;;;;5073404;27;20043;-87
2022/06/28 02:16:40;;;;;;;3.60;1.30;;;22.60;71.90;;;;;;5080155;27;20134;-86
2022/06/28 02:19:06;;;;;;;2.53;1.08;;;22.60;72.20;;;;;;5076585;28;20036;-87
2022/06/28 02:21:40;;;;;;;5.18;1.10;;;22.60;73.50;;;;;;5052005;28;20404;-88
2022/06/28 02:24:07;;;;;;;6.97;1.23;;;22.50;75.20;;;;;;5074617;28;20064;-88
2022/06/28 02:26:33;;;;;;;5.72;0.93;;;22.50;76.20;;;;;;5074320;28;20032;-87
2022/06/28 02:29:05;;;;;;;7.00;0.98;;;22.30;76.70;;;;;;5074369;28;20461;-88
2022/06/28 02:31:31;;;;;;;1.70;0.90;;;22.20;76.70;;;;;;5074505;28;20081;-88
2022/06/28 02:33:57;;;;;;;9.45;1.70;;;22.20;77.00;;;;;;5074920;28;20488;-88
2022/06/28 02:41:38;;;;;;;5.38;1.10;;;21.90;78.30;;;;;;5092848;28;20032;-87
2022/06/28 02:44:04;;;;;;;2.60;1.13;;;21.80;78.70;;;;;;5074398;28;20419;-87
2022/06/28 02:46:31;;;;;;;4.43;0.93;;;21.80;79.30;;;;;;5074041;28;20028;-87
2022/06/28 02:48:56;;;;;;;4.68;1.13;;;21.70;80.60;;;;;;5074113;28;20028;-87
2022/06/28 02:51:22;;;;;;;1.30;0.77;;;21.70;81.70;;;;;;5074398;28;20035;-88
2022/06/28 02:53:48;;;;;;;4.45;1.20;;;21.60;82.20;;;;;;5074401;28;20024;-87
2022/06/28 02:56:14;;;;;;;3.70;1.25;;;21.70;82.40;;;;;;5074095;28;20024;-88
2022/06/28 02:58:40;;;;;;;6.70;1.13;;;21.60;82.70;;;;;;5074398;28;20407;-87
2022/06/28 03:01:06;;;;;;;2.58;1.17;;;21.60;83.30;;;;;;5073905;28;20039;-88
2022/06/28 03:03:31;;;;;;;4.35;1.05;;;21.60;84.70;;;;;;5074093;28;20476;-88
2022/06/28 03:05:57;;;;;;;5.55;1.38;;;21.50;85.80;;;;;;5091541;28;20111;-88
2022/06/28 03:08:23;;;;;;;4.65;1.50;;;21.50;86.20;;;;;;5091912;28;20492;-88
2022/06/28 03:10:49;;;;;;;4.72;1.20;;;21.50;86.80;;;;;;5074029;28;20035;-88
2022/06/28 03:13:14;;;;;;;5.50;1.25;;;21.60;86.50;;;;;;5073271;28;20028;-87
2022/06/28 03:15:40;;;;;;;5.90;1.48;;;21.70;85.80;;;;;;5073504;28;20042;-88
2022/06/28 03:18:06;;;;;;;2.35;1.13;;;21.70;85.90;;;;;;5074006;28;20074;-88
2022/06/28 03:20:31;;;;;;;3.13;1.00;;;21.80;85.10;;;;;;5075902;28;20472;-89
2022/06/28 03:22:57;;;;;;;6.63;1.67;;;21.90;85.00;;;;;;5078910;28;20043;-89
2022/06/28 03:25:23;;;;;;;7.75;1.48;;;22.00;85.50;;;;;;5075268;28;20072;-88
2022/06/28 03:27:49;;;;;;;14.52;1.50;;;22.10;86.50;;;;;;5091953;28;20563;-87
2022/06/28 03:30:14;;;;;;;7.70;1.27;;;22.10;87.30;;;;;;5080568;28;20035;-87
2022/06/28 03:32:40;;;;;;;16.20;1.48;;;22.10;88.00;;;;;;5095984;28;20484;-87
2022/06/28 03:35:08;;;;;;;4.38;1.17;;;22.10;88.30;;;;;;5074828;28;20059;-88
2022/06/28 03:37:35;;;;;;;4.07;1.52;;;22.10;88.60;;;;;;5074995;28;20039;-88
2022/06/28 03:40:01;;;;;;;5.10;1.60;;;22.10;89.10;;;;;;5091732;28;20024;-88
2022/06/28 03:42:27;;;;;;;4.32;1.25;;;22.10;90.10;;;;;;5073165;28;20070;-87
2022/06/28 03:44:53;;;;;;;6.22;1.27;;;22.10;90.50;;;;;;5073383;28;20013;-87
2022/06/28 03:47:19;;;;;;;5.40;1.15;;;22.10;91.10;;;;;;5073254;28;20025;-88
2022/06/28 03:49:45;;;;;;;2.70;1.10;;;22.20;91.00;;;;;;5073822;28;20047;-88
2022/06/28 03:52:11;;;;;;;8.52;2.00;;;22.20;91.00;;;;;;5073849;28;20055;-88
2022/06/28 03:54:36;;;;;;;5.07;1.33;;;22.30;90.80;;;;;;5073711;28;20054;-89
2022/06/28 03:57:02;;;;;;;4.32;1.48;;;22.40;90.60;;;;;;5072353;28;20020;-87
2022/06/28 03:59:28;;;;;;;15.68;1.48;;;22.50;90.90;;;;;;5073331;28;20393;-88
2022/06/28 04:01:54;;;;;;;4.93;1.10;;;22.60;91.10;;;;;;5073229;28;20437;-88
2022/06/28 04:04:19;;;;;;;2.00;0.90;;;22.70;91.20;;;;;;5073389;28;20496;-86
2022/06/28 04:06:45;;;;;;;6.57;1.30;;;22.90;91.20;;;;;;5073232;28;20036;-88
2022/06/28 04:09:11;;;;;;;2.22;1.23;;;23.10;90.80;;;;;;5073233;28;20143;-88
2022/06/28 04:11:36;;;;;;;7.38;1.83;;;23.50;90.20;;;;;;5073359;28;20507;-88
2022/06/28 04:14:02;;;;;;;5.40;1.65;;;23.80;88.30;;;;;;5073096;28;20520;-88
2022/06/28 04:16:28;;;;;;;3.38;1.13;;;24.20;86.90;;;;;;5073276;28;20030;-88
2022/06/28 04:18:54;;;;;;;2.53;0.90;;;24.40;85.20;;;;;;5072746;28;20036;-88
2022/06/28 04:21:21;;;;;;;2.47;1.10;;;24.60;84.50;;;;;;5091118;28;20055;-88
2022/06/28 04:23:47;;;;;;;3.20;1.33;;;24.70;83.30;;;;;;5073153;28;20050;-87
2022/06/28 04:26:13;;;;;;;16.25;2.45;;;24.80;82.50;;;;;;5072977;28;20423;-88
2022/06/28 04:28:39;;;;;;;4.32;1.40;;;24.90;83.10;;;;;;5073193;28;20050;-88
2022/06/28 04:31:05;;;;;;;5.15;1.65;;;25.00;83.50;;;;;;5091229;28;20024;-87
2022/06/28 04:33:32;;;;;;;9.32;1.40;;;25.10;82.80;;;;;;5072656;28;20051;-88
2022/06/28 04:35:58;;;;;;;6.32;1.65;;;25.30;82.30;;;;;;5072995;28;20052;-88
2022/06/28 04:38:24;;;;;;;7.35;1.33;;;25.40;82.10;;;;;;5073070;28;20039;-87
2022/06/28 04:40:50;;;;;;;5.70;1.55;;;25.60;81.20;;;;;;5071371;28;20024;-88
2022/06/28 04:43:15;;;;;;;3.00;1.27;;;25.70;81.10;;;;;;5070385;28;19920;-87
2022/06/28 04:45:41;;;;;;;2.78;1.25;;;25.80;81.10;;;;;;5070841;28;20115;-87
2022/06/28 04:48:07;;;;;;;9.25;1.10;;;25.80;81.00;;;;;;5073318;28;20032;-88
2022/06/28 04:50:33;;;;;;;8.07;1.50;;;25.90;80.80;;;;;;5072931;28;20503;-89
2022/06/28 04:52:59;;;;;;;3.17;1.10;;;26.10;81.80;;;;;;5091271;28;20099;-88
2022/06/28 04:55:25;;;;;;;6.20;1.65;;;26.20;82.10;;;;;;5072880;28;20047;-88
2022/06/28 04:57:51;;;;;;;8.07;1.90;;;26.30;79.10;;;;;;5072921;28;20016;-87
2022/06/28 05:00:17;;;;;;;3.22;1.25;;;26.50;78.10;;;;;;5090620;28;20035;-87
2022/06/28 05:02:43;;;;;;;11.02;1.67;;;26.70;78.80;;;;;;5072497;28;20032;-88
2022/06/28 05:05:09;;;;;;;5.72;1.33;;;26.90;79.60;;;;;;5072712;28;20023;-89
2022/06/28 05:07:37;;;;;;;5.97;1.23;;;27.10;80.50;;;;;;5072859;28;20484;-89
2022/06/28 05:10:04;;;;;;;5.05;1.50;;;27.30;79.50;;;;;;5075832;28;20050;-88
2022/06/28 05:12:30;;;;;;;7.38;1.52;;;27.50;77.50;;;;;;5075869;28;20074;-88
2022/06/28 05:14:55;;;;;;;3.88;1.48;;;27.70;77.10;;;;;;5076345;28;20040;-89
2022/06/28 05:17:21;;;;;;;2.92;1.10;;;27.90;75.90;;;;;;5075820;28;20031;-89
2022/06/28 05:19:48;;;;;;;9.25;1.25;;;28.20;73.80;;;;;;5076208;28;20032;-88
2022/06/28 05:22:14;;;;;;;7.65;1.88;;;28.50;71.50;;;;;;5075782;28;20051;-88
2022/06/28 05:24:40;;;;;;;3.40;1.20;;;28.90;66.50;;;;;;5075777;28;20024;-86
2022/06/28 05:27:06;;;;;;;8.93;1.42;;;29.20;66.00;;;;;;5076235;28;20040;-89
2022/06/28 05:29:31;;;;;;;5.40;1.25;;;29.40;64.20;;;;;;5075621;28;20012;-88
2022/06/28 05:31:58;;;;;;;4.78;1.15;;;29.50;63.50;;;;;;5077669;28;20032;-88
2022/06/28 05:34:23;;;;;;;3.80;1.33;;;29.70;63.90;;;;;;5074895;28;20035;-88
2022/06/28 05:36:49;;;;;;;7.15;1.38;;;29.90;63.20;;;;;;5093724;28;20408;-88
2022/06/28 05:39:15;;;;;;;7.68;2.25;;;30.00;61.90;;;;;;5075391;28;20052;-88
2022/06/28 05:41:44;;;;;;;5.70;1.50;;;29.90;59.00;;;;;;5075391;28;20486;-87
2022/06/28 05:44:13;;;;;;;6.15;2.05;;;30.00;60.30;;;;;;5075083;28;20031;-89
2022/06/28 05:46:42;;;;;;;9.75;1.95;;;30.40;58.80;;;;;;5093602;28;20044;-89
2022/06/28 05:49:08;;;;;;;7.68;1.52;;;30.80;57.80;;;;;;5075968;28;20034;-89
2022/06/28 05:51:34;;;;;;;2.50;1.45;;;31.40;57.10;;;;;;5093269;28;20042;-89
2022/06/28 05:54:01;;;;;;;2.90;1.30;;;31.80;55.60;;;;;;5075191;28;20063;-89
2022/06/28 05:56:27;;;;;;;4.38;1.67;;;32.20;53.60;;;;;;5075240;28;20035;-89
2022/06/28 05:58:53;;;;;;;3.25;1.23;;;33.00;52.20;;;;;;5075447;28;20276;-89
2022/06/28 06:01:20;;;;;;;5.53;1.83;;;34.10;50.50;;;;;;5075453;28;20032;-88
2022/06/28 06:03:46;;;;;;;3.10;1.65;;;35.40;47.90;;;;;;5075376;28;20020;-87
2022/06/28 06:06:12;;;;;;;9.63;1.00;;;36.20;43.90;;;;;;5092912;28;20028;-86
2022/06/28 06:08:38;;;;;;;11.90;1.33;;;37.20;42.60;;;;;;5093319;28;20018;-86
2022/06/28 06:11:07;;;;;;;3.70;1.50;;;37.90;40.20;;;;;;5075005;28;20118;-87
2022/06/28 06:13:36;;;;;;;6.95;1.52;;;38.40;39.90;;;;;;5074125;28;20507;-86
2022/06/28 06:16:03;;;;;;;6.22;1.50;;;38.70;39.30;;;;;;5092542;28;20024;-85
2022/06/28 06:18:28;;;;;;;4.00;1.30;;;38.80;38.40;;;;;;5074423;28;20043;-86
2022/06/28 06:20:54;;;;;;;4.18;1.17;;;38.90;37.50;;;;;;5091709;28;20056;-87
2022/06/28 06:23:20;;;;;;;5.85;2.03;;;38.90;37.10;;;;;;5074858;28;20039;-87
2022/06/28 06:25:46;;;;;;;3.60;1.52;;;39.00;36.10;;;;;;5074585;28;20024;-87
2022/06/28 06:28:11;;;;;;;3.05;0.88;;;39.00;36.50;;;;;;5092427;28;20032;-88
2022/06/28 06:30:37;;;;;;;5.32;1.40;;;39.30;35.80;;;;;;5074318;28;20031;-87
2022/06/28 06:33:03;;;;;;;8.98;1.23;;;39.60;35.30;;;;;;5074382;28;20028;-86
2022/06/28 06:35:29;;;;;;;7.93;1.38;;;39.70;35.60;;;;;;5074417;28;20044;-85
2022/06/28 06:38:00;;;;;;;4.18;1.73;;;40.00;35.20;;;;;;5073998;28;20028;-87
2022/06/28 06:40:30;;;;;;;3.42;1.10;;;40.30;34.40;;;;;;5073773;28;20384;-86
2022/06/28 06:42:56;;;;;;;11.02;1.60;;;40.40;34.50;;;;;;5085100;28;20036;-86
2022/06/28 06:45:22;;;;;;;4.22;1.40;;;40.60;33.30;;;;;;5091359;28;20020;-85
2022/06/28 06:47:48;;;;;;;7.82;1.20;;;40.80;34.10;;;;;;5073642;28;20028;-86
2022/06/28 06:50:14;;;;;;;7.40;1.10;;;40.40;33.90;;;;;;5091702;28;20024;-83
2022/06/28 06:52:40;;;;;;;7.65;1.25;;;39.30;35.20;;;;;;5073250;28;20039;-85
2022/06/28 06:55:06;;;;;;;14.98;1.60;;;38.00;36.90;;;;;;5073725;28;20028;-84
2022/06/28 06:57:32;;;;;;;7.25;1.65;;;36.50;38.80;;;;;;5073841;28;20028;-85
2022/06/28 06:59:58;;;;;;;6.85;1.38;;;35.20;41.10;;;;;;5073734;28;20046;-85
2022/06/28 07:02:23;;;;;;;7.97;1.92;;;34.10;43.00;;;;;;5073941;28;20085;-85
2022/06/28 07:04:49;;;;;;;4.13;1.92;;;33.30;43.50;;;;;;5072997;28;20395;-84
2022/06/28 07:07:15;;;;;;;6.75;1.85;;;32.60;44.90;;;;;;5073552;28;20031;-87
2022/06/28 07:09:40;;;;;;;7.82;1.60;;;32.20;46.20;;;;;;5073344;28;20051;-86
2022/06/28 07:12:07;;;;;;;4.43;1.88;;;32.30;46.70;;;;;;5091883;28;20036;-86
2022/06/28 07:14:32;;;;;;;9.70;1.70;;;32.80;46.20;;;;;;5072719;28;20032;-88
2022/06/28 07:16:58;;;;;;;6.15;1.83;;;33.80;44.80;;;;;;5074108;28;20020;-87
2022/06/28 07:19:24;;;;;;;10.52;1.88;;;34.70;42.90;;;;;;5077732;28;20027;-87
2022/06/28 07:21:49;;;;;;;7.78;1.55;;;35.10;42.50;;;;;;5075512;28;20516;-86
2022/06/28 07:24:17;;;;;;;2.67;1.33;;;35.70;41.00;;;;;;5077629;28;20086;-86
2022/06/28 07:26:43;;;;;;;9.65;1.90;;;36.20;41.00;;;;;;5090984;28;20028;-86
2022/06/28 07:29:08;;;;;;;8.77;2.25;;;36.70;41.30;;;;;;5073471;28;20046;-88
2022/06/28 07:31:34;;;;;;;7.30;1.65;;;37.30;38.80;;;;;;5091325;28;20308;-88
2022/06/28 07:34:00;;;;;;;6.57;1.42;;;37.60;37.60;;;;;;5090700;28;20056;-86
2022/06/28 07:36:26;;;;;;;11.35;1.73;;;37.40;37.80;;;;;;5072795;28;20044;-87
2022/06/28 07:38:54;;;;;;;5.57;1.35;;;37.90;37.00;;;;;;5091336;28;20534;-88
2022/06/28 07:41:23;;;;;;;5.72;2.08;;;38.10;36.80;;;;;;5073267;28;20040;-87
2022/06/28 07:43:51;;;;;;;5.55;1.83;;;38.20;37.80;;;;;;5073112;28;20016;-87
2022/06/28 07:46:19;;;;;;;9.18;2.63;;;38.70;36.40;;;;;;5073310;28;20399;-88
2022/06/28 07:48:45;;;;;;;10.30;2.28;;;39.20;35.90;;;;;;5073210;28;20112;-88
2022/06/28 07:53:56;;;;;;;4.00;1.97;;;39.30;34.40;;;;;;5091102;28;20019;-87
2022/06/28 07:56:22;;;;;;;12.60;1.55;;;38.50;33.30;;;;;;5071438;28;20024;-87
2022/06/28 07:58:47;;;;;;;3.40;1.67;;;38.30;35.50;;;;;;5070529;28;20028;-87
2022/06/28 08:01:13;;;;;;;2.92;1.70;;;38.80;34.10;;;;;;5072105;28;20031;-87
2022/06/28 08:03:39;;;;;;;3.30;2.00;;;39.00;34.00;;;;;;5073230;28;20028;-86
2022/06/28 08:06:04;;;;;;;3.53;1.30;;;39.20;33.40;;;;;;5073107;28;20024;-89
2022/06/28 08:08:30;;;;;;;2.58;1.25;;;39.00;32.60;;;;;;5072989;28;20459;-87
2022/06/28 08:10:56;;;;;;;5.55;1.52;;;39.30;33.90;;;;;;5072962;28;20016;-88
2022/06/28 08:13:22;;;;;;;2.97;1.25;;;39.20;33.10;;;;;;5071959;28;20020;-87
2022/06/28 08:15:47;;;;;;;6.90;1.58;;;39.30;32.80;;;;;;5091104;28;20400;-87
2022/06/28 08:18:13;;;;;;;6.65;1.50;;;39.80;31.50;;;;;;5072818;28;20028;-88
2022/06/28 08:20:39;;;;;;;2.53;1.40;;;40.10;31.30;;;;;;5072969;28;20027;-87
2022/06/28 08:23:05;;;;;;;3.22;1.33;;;39.90;31.30;;;;;;5072263;28;20043;-87
2022/06/28 08:25:31;;;;;;;7.47;1.52;;;40.20;31.80;;;;;;5072805;28;20510;-87
2022/06/28 08:27:57;;;;;;;4.03;1.60;;;40.70;31.50;;;;;;5073136;28;20028;-86
2022/06/28 08:30:22;;;;;;;2.90;1.10;;;40.70;30.50;;;;;;5072379;28;20020;-86
2022/06/28 08:32:48;;;;;;;2.13;0.98;;;40.50;30.00;;;;;;5090644;28;20111;-88
2022/06/28 08:35:14;;;;;;;2.28;1.20;;;40.50;30.00;;;;;;5072178;28;20114;-86
2022/06/28 08:37:40;;;;;;;3.25;1.30;;;40.40;30.70;;;;;;5072428;28;20039;-87
2022/06/28 08:40:06;;;;;;;4.03;1.23;;;40.50;29.80;;;;;;5072103;28;20024;-87
2022/06/28 08:42:37;;;;;;;5.53;1.20;;;40.50;29.60;;;;;;5072694;28;20032;-86
2022/06/28 08:45:03;;;;;;;3.95;1.33;;;40.40;29.60;;;;;;5075591;28;20034;-85
2022/06/28 08:47:34;;;;;;;6.05;1.48;;;39.90;28.80;;;;;;5076129;28;20067;-87
2022/06/28 08:50:10;;;;;;;5.30;1.55;;;39.10;29.90;;;;;;5076268;28;20031;-86
2022/06/28 08:52:36;;;;;;;5.97;1.48;;;38.20;31.40;;;;;;5075673;28;20031;-87
2022/06/28 08:55:06;;;;;;;4.32;1.55;;;38.20;32.20;;;;;;5075893;28;20016;-86
2022/06/28 08:57:32;;;;;;;8.80;1.77;;;38.60;31.80;;;;;;5075261;28;20031;-86
2022/06/28 08:59:59;;;;;;;6.45;1.20;;;38.90;31.00;;;;;;5076185;28;20081;-86
2022/06/28 09:02:25;;;;;;;12.40;1.05;;;39.00;30.50;;;;;;5075496;28;20051;-86
2022/06/28 09:04:53;;;;;;;7.05;1.27;;;39.20;30.50;;;;;;5075030;28;20032;-87
2022/06/28 09:07:20;;;;;;;4.10;1.40;;;39.20;29.80;;;;;;5075759;28;20070;-86
2022/06/28 09:09:46;;;;;;;2.78;1.42;;;39.10;29.80;;;;;;5076106;28;20032;-87
2022/06/28 09:12:12;;;;;;;9.73;1.73;;;39.00;29.70;;;;;;5093736;28;20511;-87
2022/06/28 09:14:39;;;;;;;6.22;1.40;;;39.10;30.00;;;;;;5075247;28;20523;-87
2022/06/28 09:17:25;;;;;;;6.80;1.40;;;39.50;29.80;;;;;;5075570;28;20020;-86
2022/06/28 09:20:03;;;;;;;5.75;1.65;;;40.00;28.90;;;;;;5075280;28;20061;-85
2022/06/28 09:22:32;;;;;;;5.90;1.65;;;40.50;29.30;;;;;;5074707;28;20040;-85
2022/06/28 09:24:59;;;;;;;6.00;1.20;;;40.90;29.00;;;;;;5074886;28;20079;-87
2022/06/28 09:27:34;;;;;;;10.55;1.30;;;41.30;29.40;;;;;;5075141;28;20690;-88
2022/06/28 09:30:01;;;;;;;2.72;1.20;;;41.30;29.00;;;;;;5076729;28;20051;-86
2022/06/28 09:32:32;;;;;;;4.75;1.23;;;41.20;29.00;;;;;;5074828;28;20036;-85
2022/06/28 09:35:00;;;;;;;16.13;1.50;;;41.20;28.90;;;;;;5074460;28;20390;-86
2022/06/28 09:37:38;;;;;;;4.57;1.10;;;41.10;29.20;;;;;;5075009;28;20030;-88
2022/06/28 09:40:32;;;;;;;7.00;1.33;;;41.20;29.10;;;;;;5075319;28;20028;-86
2022/06/28 09:43:10;;;;;;;7.20;1.23;;;41.50;29.40;;;;;;5092192;28;20044;-87
2022/06/28 09:45:42;;;;;;;3.83;1.13;;;41.30;29.00;;;;;;5074017;28;20425;-86
2022/06/28 09:48:08;;;;;;;5.20;1.67;;;41.20;29.00;;;;;;5092600;28;20024;-87
2022/06/28 09:50:36;;;;;;;4.30;1.50;;;41.20;28.70;;;;;;5074785;28;20032;-86
2022/06/28 09:53:03;;;;;;;4.72;1.35;;;41.00;28.80;;;;;;5074517;28;20020;-86
2022/06/28 09:55:31;;;;;;;3.72;1.63;;;40.70;29.30;;;;;;5091496;28;20059;-86
2022/06/28 09:57:59;;;;;;;6.43;1.17;;;40.50;29.90;;;;;;5074492;28;20028;-86
2022/06/28 10:00:25;;;;;;;5.93;1.58;;;40.30;30.00;;;;;;5092475;28;20051;-86
2022/06/28 10:02:56;;;;;;;2.97;0.98;;;40.50;30.20;;;;;;5074514;28;20078;-86
2022/06/28 10:05:22;;;;;;;8.55;1.70;;;40.20;30.10;;;;;;5074487;28;20408;-87
2022/06/28 10:07:48;;;;;;;5.47;1.27;;;39.80;30.10;;;;;;5074556;28;20024;-86
2022/06/28 10:10:14;;;;;;;5.95;1.73;;;39.10;30.40;;;;;;5074438;28;20051;-88
2022/06/28 10:15:37;;;;;;;4.68;1.27;;;38.20;31.90;;;;;;5093011;28;20031;-86
2022/06/28 10:18:10;;;;;;;3.40;0.93;;;38.00;31.90;;;;;;5092270;28;20067;-85
2022/06/28 10:20:38;;;;;;;6.07;1.10;;;37.70;32.10;;;;;;5072402;28;20366;-87
2022/06/28 10:23:23;;;;;;;11.25;1.13;;;37.60;32.30;;;;;;5091982;28;20044;-86
2022/06/28 10:26:19;;;;;;;7.57;1.50;;;37.20;33.20;;;;;;5092094;28;20072;-86
2022/06/28 10:29:05;;;;;;;7.18;1.65;;;37.00;32.90;;;;;;5092221;28;20032;-87
2022/06/28 10:31:32;;;;;;;8.75;1.80;;;37.10;33.50;;;;;;5074563;28;20020;-86
2022/06/28 10:34:03;;;;;;;5.85;1.10;;;37.20;34.00;;;;;;5073526;28;20165;-86
2022/06/28 10:36:39;;;;;;;6.40;1.17;;;37.00;33.20;;;;;;5074290;28;20055;-87
2022/06/28 10:39:08;;;;;;;3.50;1.30;;;36.90;33.10;;;;;;5073473;28;20032;-87
2022/06/28 10:41:59;;;;;;;8.32;1.80;;;36.70;33.80;;;;;;5073434;28;20028;-86
2022/06/28 10:44:41;;;;;;;2.88;0.90;;;36.40;34.20;;;;;;5074282;28;20122;-86
2022/06/28 10:47:07;;;;;;;5.13;1.25;;;36.30;34.70;;;;;;5073955;28;20060;-87
2022/06/28 10:49:42;;;;;;;5.72;1.42;;;36.30;34.70;;;;;;5092234;28;20016;-86
2022/06/28 10:52:19;;;;;;;7.60;0.93;;;36.20;34.60;;;;;;5074007;28;20028;-87
2022/06/28 10:54:57;;;;;;;7.25;1.35;;;36.10;35.10;;;;;;5073883;28;20509;-86
2022/06/28 10:57:27;;;;;;;3.13;1.17;;;36.00;35.50;;;;;;5073543;28;20020;-87
2022/06/28 10:59:58;;;;;;;11.35;1.63;;;35.90;35.80;;;;;;5074029;28;20131;-87
2022/06/28 11:02:43;;;;;;;12.35;1.52;;;35.80;35.70;;;;;;5073485;28;20472;-85
2022/06/28 11:05:09;;;;;;;2.78;0.90;;;35.70;36.00;;;;;;5073994;28;20020;-86
2022/06/28 11:07:37;;;;;;;3.15;1.10;;;35.60;36.30;;;;;;5073657;28;20034;-88
2022/06/28 11:10:14;;;;;;;10.95;1.50;;;35.60;36.40;;;;;;5073512;28;20082;-87
2022/06/28 11:12:41;;;;;;;5.35;1.25;;;35.70;36.80;;;;;;5072555;28;20035;-86
2022/06/28 11:15:36;;;;;;;2.55;1.00;;;35.70;36.80;;;;;;5071255;28;20031;-88
2022/06/28 11:18:13;;;;;;;6.32;1.27;;;35.70;37.10;;;;;;5086578;28;20028;-87
2022/06/28 11:20:39;;;;;;;8.20;1.55;;;35.70;37.70;;;;;;5076140;28;20015;-87
2022/06/28 11:23:06;;;;;;;4.00;1.30;;;35.70;37.20;;;;;;5093568;28;20110;-87
2022/06/28 11:28:15;;;;;;;4.93;1.20;;;35.90;36.40;;;;;;5091566;28;20031;-86
2022/06/28 11:30:42;;;;;;;8.57;1.27;;;35.90;36.90;;;;;;5081394;28;20024;-87
2022/06/28 11:33:10;;;;;;;4.72;0.85;;;35.70;37.40;;;;;;5073098;28;20024;-86
2022/06/28 11:35:36;;;;;;;6.78;1.13;;;35.70;37.50;;;;;;5073335;28;20519;-87
2022/06/28 11:38:08;;;;;;;15.45;1.55;;;35.60;37.60;;;;;;5091421;28;20024;-87
2022/06/28 11:40:41;;;;;;;3.95;1.65;;;35.50;37.20;;;;;;5072898;28;20621;-87
2022/06/28 11:43:07;;;;;;;5.32;1.35;;;35.30;37.60;;;;;;5091216;28;20042;-87
2022/06/28 11:45:35;;;;;;;3.83;1.10;;;35.20;37.90;;;;;;5072948;28;20119;-88
2022/06/28 11:48:05;;;;;;;5.53;1.25;;;35.10;38.50;;;;;;5072644;28;20047;-87
2022/06/28 11:50:49;;;;;;;5.38;1.02;;;35.10;38.70;;;;;;5072555;28;20032;-86
2022/06/28 11:53:15;;;;;;;3.80;1.38;;;35.00;38.50;;;;;;5072948;28;20032;-87
2022/06/28 11:55:44;;;;;;;6.78;1.20;;;34.90;38.90;;;;;;5073291;28;20114;-86
2022/06/28 11:58:19;;;;;;;6.65;2.42;;;34.70;39.20;;;;;;5074115;28;20024;-86
2022/06/28 12:01:13;;;;;;;4.65;1.45;;;34.50;39.30;;;;;;5073283;28;20081;-88
2022/06/28 12:03:42;;;;;;;6.82;1.25;;;34.40;39.40;;;;;;5073062;28;20090;-87
2022/06/28 12:06:20;;;;;;;5.18;1.63;;;34.30;40.40;;;;;;5073347;28;20028;-87
2022/06/28 12:09:11;;;;;;;3.53;1.08;;;34.20;41.00;;;;;;5072675;28;20028;-87
2022/06/28 12:11:45;;;;;;;2.78;0.80;;;34.20;41.30;;;;;;5073483;28;20032;-87
2022/06/28 12:14:22;;;;;;;5.43;1.10;;;34.30;41.20;;;;;;5073087;28;20043;-86
2022/06/28 12:16:49;;;;;;;6.53;1.25;;;34.30;40.30;;;;;;5073213;28;20039;-87
2022/06/28 12:19:21;;;;;;;5.07;1.35;;;34.30;40.60;;;;;;5094428;28;20020;-87
2022/06/28 12:21:59;;;;;;;7.35;1.55;;;34.40;40.40;;;;;;5094800;28;20067;-87
2022/06/28 12:24:37;;;;;;;6.95;1.42;;;34.50;40.00;;;;;;5076098;28;20082;-86
2022/06/28 12:27:03;;;;;;;7.05;1.50;;;34.40;39.80;;;;;;5076713;28;20028;-86
2022/06/28 12:29:28;;;;;;;4.03;1.30;;;34.40;40.00;;;;;;5077041;28;20024;-88
2022/06/28 12:31:54;;;;;;;8.15;1.17;;;34.40;40.10;;;;;;5093271;28;20487;-87
2022/06/28 12:34:20;;;;;;;3.33;0.75;;;34.30;39.70;;;;;;5076038;28;20507;-84
2022/06/28 12:36:46;;;;;;;7.80;1.60;;;34.30;39.60;;;;;;5074980;28;20044;-85
2022/06/28 12:39:11;;;;;;;4.78;1.30;;;34.30;40.20;;;;;;5075083;28;20035;-86
2022/06/28 12:41:37;;;;;;;12.85;1.10;;;34.20;41.30;;;;;;5071701;28;20059;-87
2022/06/28 12:44:03;;;;;;;11.50;1.42;;;34.10;42.30;;;;;;5056265;28;20040;-86
2022/06/28 12:46:29;;;;;;;4.93;1.40;;;34.10;43.30;;;;;;5092868;28;20031;-84
2022/06/28 12:48:54;;;;;;;6.38;1.42;;;34.00;43.60;;;;;;5071525;28;20086;-86
2022/06/28 12:51:20;;;;;;;8.18;2.03;;;33.90;43.20;;;;;;5060293;28;20021;-87
2022/06/28 12:53:46;;;;;;;9.23;1.70;;;33.80;43.60;;;;;;5055792;28;20067;-88
2022/06/28 12:56:13;;;;;;;4.30;1.35;;;33.80;43.10;;;;;;5056248;28;20027;-86
2022/06/28 12:58:38;;;;;;;8.95;1.10;;;33.70;42.40;;;;;;5056083;28;20052;-86
2022/06/28 13:01:04;;;;;;;7.82;1.95;;;33.70;42.20;;;;;;5055924;28;20119;-86
2022/06/28 13:03:30;;;;;;;7.53;1.52;;;33.70;42.60;;;;;;5073017;28;20048;-87
2022/06/28 13:05:55;;;;;;;10.45;1.63;;;33.70;44.10;;;;;;5075560;28;20123;-86